KASH/ASH METAR and TAF weather

Enter ICAO airport designator
Station Type Date Time Source
KASH METAR 2019/08/19 21:56 UTC NOAA

KASH 192156Z 29008KT 10SM SCT045 BKN100 25/22 A2990 RMK AO2 TSE52RAB10E39 SLP128 P0001 T02500222


Station Type Date Time Source
KASH Decoded METAR 2019/08/19 21:56 UTC NOAA

Nashua, Boire Field Airport, NH, United States (KASH) 42-46-54N 071-30-53W
Aug 19, 2019 - 05:56 PM EDT / 2019.08.19 2156 UTC
Wind: from the WNW (290 degrees) at 9 MPH (8 KT):0
Visibility: 10 mile(s):0
Sky conditions: mostly cloudy
Precipitation last hour: 0.01 inches
Temperature: 77.0 F (25.0 C)
Dew Point: 72.0 F (22.2 C)
Relative Humidity: 84%
Pressure (altimeter): 29.9 in. Hg (1012 hPa)
ob: KASH 192156Z 29008KT 10SM SCT045 BKN100 25/22 A2990 RMK AO2 TSE52RAB10E39 SLP128 P0001 T02500222
cycle: 22

Station Type Date Time Source
KASH TAF UTC NOAA

Error!

Example: see airport list